createdAt,value
2017-09-13T00:00:08.823Z,9.88
2017-09-13T00:02:37.351Z,9.89
2017-09-13T00:05:05.158Z,9.91
2017-09-13T00:07:33.125Z,9.86
2017-09-13T00:10:00.830Z,9.87
2017-09-13T00:12:28.621Z,9.86
2017-09-13T00:14:56.458Z,9.86
2017-09-13T00:17:24.185Z,9.85
2017-09-13T00:19:51.952Z,9.78
2017-09-13T00:22:19.734Z,9.74
2017-09-13T00:24:47.439Z,9.79
2017-09-13T00:27:15.216Z,9.81
2017-09-13T00:29:42.961Z,9.77
2017-09-13T00:32:10.714Z,9.82
2017-09-13T00:34:38.438Z,9.80
2017-09-13T00:37:06.197Z,9.77
2017-09-13T00:39:33.944Z,9.79
2017-09-13T00:42:01.704Z,9.82
2017-09-13T00:44:29.490Z,9.82
2017-09-13T00:46:57.457Z,9.87
2017-09-13T00:49:25.193Z,9.91
2017-09-13T00:51:52.992Z,9.94
2017-09-13T00:54:20.916Z,9.86
2017-09-13T00:56:48.618Z,9.84
2017-09-13T00:59:16.382Z,9.82
2017-09-13T01:01:44.417Z,9.87
2017-09-13T01:04:12.141Z,9.90
2017-09-13T01:06:39.850Z,9.83
2017-09-13T01:09:07.966Z,9.90
2017-09-13T01:11:35.660Z,9.92
2017-09-13T01:14:05.440Z,9.95
2017-09-13T01:16:33.700Z,9.97
2017-09-13T01:19:01.443Z,10.00
2017-09-13T01:21:31.154Z,9.97
2017-09-13T01:24:00.696Z,9.85
2017-09-13T01:26:28.969Z,9.86
2017-09-13T01:28:57.794Z,9.85
2017-09-13T01:31:25.599Z,9.78
2017-09-13T01:33:53.377Z,9.85
2017-09-13T01:36:21.367Z,9.84
2017-09-13T01:38:49.085Z,9.82
2017-09-13T01:41:16.849Z,9.86
2017-09-13T01:43:45.433Z,9.82
2017-09-13T01:46:13.763Z,9.83
2017-09-13T01:48:41.532Z,9.77
2017-09-13T01:51:09.247Z,9.74
2017-09-13T01:53:36.949Z,9.69
2017-09-13T01:56:04.685Z,9.67
2017-09-13T01:58:32.922Z,9.75
2017-09-13T02:01:00.642Z,9.78
2017-09-13T02:03:28.515Z,9.73
2017-09-13T02:05:57.198Z,9.64
2017-09-13T02:08:24.912Z,9.68
2017-09-13T02:10:52.764Z,9.70
2017-09-13T02:13:20.449Z,9.64
2017-09-13T02:15:49.541Z,9.68
2017-09-13T02:18:17.302Z,9.56
2017-09-13T02:20:46.775Z,9.55
2017-09-13T02:23:14.558Z,9.48
2017-09-13T02:25:42.357Z,9.47
2017-09-13T02:28:10.135Z,9.53
2017-09-13T02:30:37.933Z,9.46
2017-09-13T02:33:05.647Z,9.43
2017-09-13T02:35:33.431Z,9.39
2017-09-13T02:38:01.175Z,9.43
2017-09-13T02:40:28.981Z,9.40
2017-09-13T02:42:56.697Z,9.40
2017-09-13T02:45:24.522Z,9.40
2017-09-13T02:47:52.223Z,9.35
2017-09-13T02:50:19.993Z,9.33
2017-09-13T02:52:47.690Z,9.39
2017-09-13T02:55:15.422Z,9.32
2017-09-13T02:57:43.227Z,9.21
2017-09-13T03:00:11.049Z,9.16
2017-09-13T03:02:38.815Z,9.19
2017-09-13T03:05:06.530Z,9.19
2017-09-13T03:07:34.369Z,8.95
2017-09-13T03:10:02.083Z,9.00
2017-09-13T03:12:29.920Z,8.97
2017-09-13T03:14:58.205Z,8.99
2017-09-13T03:17:25.933Z,9.00
2017-09-13T03:19:53.630Z,8.97
2017-09-13T03:22:21.400Z,9.01
2017-09-13T03:24:49.521Z,9.02
2017-09-13T03:27:17.275Z,9.06
2017-09-13T03:29:45.049Z,9.09
2017-09-13T03:32:12.793Z,9.08
2017-09-13T03:34:40.550Z,8.94
2017-09-13T03:37:08.268Z,8.89
2017-09-13T03:39:36.052Z,8.87
2017-09-13T03:42:04.633Z,8.86
2017-09-13T03:44:32.376Z,8.84
2017-09-13T03:47:00.142Z,8.80
2017-09-13T03:49:28.026Z,8.71
2017-09-13T03:51:55.754Z,8.74
2017-09-13T03:54:23.481Z,8.61
2017-09-13T03:56:51.231Z,8.51
2017-09-13T03:59:20.290Z,8.60
2017-09-13T04:01:48.121Z,8.60
2017-09-13T04:04:15.846Z,8.55
2017-09-13T04:06:43.632Z,8.45
2017-09-13T04:09:12.041Z,8.48
2017-09-13T04:11:39.794Z,8.50
2017-09-13T04:14:07.555Z,8.55
2017-09-13T04:16:35.297Z,8.59
2017-09-13T04:19:03.256Z,8.66
2017-09-13T04:21:31.590Z,8.67
2017-09-13T04:23:59.528Z,8.65
2017-09-13T04:26:28.383Z,8.55
2017-09-13T04:28:56.128Z,8.51
2017-09-13T04:31:23.864Z,8.58
2017-09-13T04:33:51.613Z,8.67
2017-09-13T04:36:19.378Z,8.71
2017-09-13T04:38:47.257Z,8.72
2017-09-13T04:41:15.029Z,8.75
2017-09-13T04:43:42.824Z,8.72
2017-09-13T04:46:10.637Z,8.78
2017-09-13T04:48:39.380Z,8.82
2017-09-13T04:51:07.162Z,8.89
2017-09-13T04:53:34.875Z,8.91
2017-09-13T04:56:02.666Z,8.93
2017-09-13T04:58:30.412Z,9.00
2017-09-13T05:00:58.139Z,8.98
2017-09-13T05:03:25.845Z,9.00
2017-09-13T05:05:53.620Z,9.03
2017-09-13T05:08:21.313Z,9.15
2017-09-13T05:10:49.040Z,9.13
2017-09-13T05:13:16.954Z,9.17
2017-09-13T05:15:44.858Z,9.20
2017-09-13T05:18:12.551Z,9.15
2017-09-13T05:20:40.296Z,9.11
2017-09-13T05:23:07.990Z,9.16
2017-09-13T05:25:35.692Z,9.18
2017-09-13T05:28:03.486Z,9.24
2017-09-13T05:30:31.196Z,9.28
2017-09-13T05:32:58.902Z,9.27
2017-09-13T05:35:26.680Z,9.33
2017-09-13T05:37:54.386Z,9.15
2017-09-13T05:40:22.122Z,9.08
2017-09-13T05:42:49.851Z,9.20
2017-09-13T05:45:17.545Z,9.25
2017-09-13T05:47:45.320Z,9.33
2017-09-13T05:50:13.028Z,9.37
2017-09-13T05:52:41.518Z,9.38
2017-09-13T05:55:09.296Z,9.45
2017-09-13T05:57:37.021Z,9.55
2017-09-13T06:00:04.787Z,9.37
2017-09-13T06:02:32.633Z,9.20
2017-09-13T06:05:00.396Z,9.16
2017-09-13T06:07:28.097Z,9.27
2017-09-13T06:09:55.902Z,9.25
2017-09-13T06:12:23.622Z,9.42
2017-09-13T06:14:51.393Z,9.49
2017-09-13T06:17:19.734Z,9.60
2017-09-13T06:19:47.445Z,9.58
2017-09-13T06:22:15.327Z,9.56
2017-09-13T06:24:43.091Z,9.49
2017-09-13T06:27:10.815Z,9.64
2017-09-13T06:29:38.699Z,9.69
2017-09-13T06:32:06.448Z,9.67
2017-09-13T06:34:34.245Z,9.81
2017-09-13T06:37:02.066Z,9.89
2017-09-13T06:39:29.874Z,10.03
2017-09-13T06:41:57.792Z,10.12
2017-09-13T06:44:25.618Z,10.23
2017-09-13T06:46:53.338Z,10.45
2017-09-13T06:49:21.226Z,10.65
2017-09-13T06:51:48.946Z,10.67
2017-09-13T06:54:16.741Z,10.50
2017-09-13T06:56:44.520Z,10.48
2017-09-13T06:59:12.225Z,10.71
2017-09-13T07:01:40.012Z,10.85
2017-09-13T07:04:07.825Z,10.87
2017-09-13T07:06:35.555Z,10.79
2017-09-13T07:09:03.446Z,10.94
2017-09-13T07:11:31.314Z,10.93
2017-09-13T07:13:59.019Z,11.00
2017-09-13T07:16:26.790Z,11.07
2017-09-13T07:18:54.520Z,11.31
2017-09-13T07:21:22.260Z,11.41
2017-09-13T07:23:50.002Z,11.36
2017-09-13T07:26:17.777Z,11.31
2017-09-13T07:28:45.534Z,11.33
2017-09-13T07:31:13.318Z,11.24
2017-09-13T07:33:41.140Z,10.80
2017-09-13T07:36:08.905Z,11.35
2017-09-13T07:38:36.649Z,11.91
2017-09-13T07:41:04.428Z,11.89
2017-09-13T07:43:32.142Z,12.25
2017-09-13T07:45:59.907Z,12.04
2017-09-13T07:48:27.636Z,12.28
2017-09-13T07:50:55.479Z,12.80
2017-09-13T07:53:23.204Z,12.74
2017-09-13T07:58:24.733Z,13.32
2017-09-13T08:00:52.453Z,13.45
2017-09-13T08:03:20.165Z,14.03
2017-09-13T08:05:47.951Z,14.43
2017-09-13T08:08:15.755Z,14.94
2017-09-13T08:10:43.545Z,15.08
2017-09-13T08:13:11.369Z,15.29
2017-09-13T08:15:39.101Z,15.42
2017-09-13T08:18:06.891Z,15.37
2017-09-13T08:20:34.646Z,15.74
2017-09-13T08:23:02.516Z,15.61
2017-09-13T08:25:30.297Z,15.41
2017-09-13T08:27:58.005Z,15.43
2017-09-13T08:30:25.774Z,15.89
2017-09-13T08:32:53.570Z,16.14
2017-09-13T08:35:21.356Z,15.16
2017-09-13T08:37:49.177Z,15.07
2017-09-13T08:40:16.947Z,15.30
2017-09-13T08:42:44.642Z,15.91
2017-09-13T08:45:12.388Z,15.50
2017-09-13T08:47:40.295Z,15.47
2017-09-13T08:50:08.102Z,15.95
2017-09-13T08:52:35.858Z,15.38
2017-09-13T08:55:03.706Z,16.01
2017-09-13T08:57:31.627Z,15.97
2017-09-13T08:59:59.587Z,15.80
2017-09-13T09:02:27.390Z,16.39
2017-09-13T09:04:55.205Z,16.47
2017-09-13T09:07:22.995Z,16.47
2017-09-13T09:09:51.831Z,16.35
2017-09-13T09:12:20.579Z,16.06
2017-09-13T09:14:48.324Z,16.69
2017-09-13T09:17:16.071Z,16.31
2017-09-13T09:19:44.193Z,15.93
2017-09-13T09:22:12.146Z,16.13
2017-09-13T09:24:40.266Z,16.18
2017-09-13T09:27:08.238Z,16.63
2017-09-13T09:29:35.994Z,16.88
2017-09-13T09:32:03.686Z,16.84
2017-09-13T09:34:31.472Z,16.82
2017-09-13T09:36:59.205Z,17.01
2017-09-13T09:39:27.103Z,17.34
2017-09-13T09:41:54.895Z,17.72
2017-09-13T09:44:22.641Z,17.43
2017-09-13T09:46:50.309Z,17.90
2017-09-13T09:49:18.066Z,17.66
2017-09-13T09:51:45.831Z,17.35
2017-09-13T09:54:13.793Z,17.39
2017-09-13T09:56:41.633Z,17.44
2017-09-13T09:59:09.383Z,18.18
2017-09-13T10:01:37.256Z,18.10
2017-09-13T10:04:05.023Z,18.09
2017-09-13T10:06:32.889Z,18.07
2017-09-13T10:09:00.635Z,17.17
2017-09-13T10:11:28.381Z,17.46
2017-09-13T10:13:56.178Z,17.50
2017-09-13T10:16:23.970Z,17.78
2017-09-13T10:18:51.736Z,18.45
2017-09-13T10:21:19.525Z,17.93
2017-09-13T10:23:47.242Z,18.27
2017-09-13T10:26:15.066Z,18.49
2017-09-13T10:28:42.833Z,18.82
2017-09-13T10:31:10.646Z,19.21
2017-09-13T10:33:38.397Z,19.40
2017-09-13T10:36:06.212Z,18.74
2017-09-13T10:38:33.963Z,18.47
2017-09-13T10:41:02.856Z,18.95
2017-09-13T10:43:31.144Z,19.17
2017-09-13T10:45:58.975Z,18.66
2017-09-13T10:48:26.865Z,18.25
2017-09-13T10:50:54.952Z,18.50
2017-09-13T10:53:22.801Z,18.67
2017-09-13T10:55:51.608Z,18.99
2017-09-13T10:58:19.402Z,18.58
2017-09-13T11:00:47.241Z,19.00
2017-09-13T11:03:15.091Z,18.80
2017-09-13T11:05:42.941Z,18.91
2017-09-13T11:08:10.720Z,18.87
2017-09-13T11:10:38.572Z,18.71
2017-09-13T11:13:06.322Z,18.40
2017-09-13T11:15:34.788Z,18.50
2017-09-13T11:18:02.569Z,18.38
2017-09-13T11:20:31.141Z,18.25
2017-09-13T11:22:59.697Z,18.30
2017-09-13T11:25:28.201Z,18.35
2017-09-13T11:27:56.001Z,18.36
2017-09-13T11:30:23.750Z,18.41
2017-09-13T11:32:53.303Z,18.53
2017-09-13T11:35:21.788Z,18.57
2017-09-13T11:37:49.754Z,18.57
2017-09-13T11:40:17.547Z,18.53
2017-09-13T11:42:45.316Z,18.57
2017-09-13T11:45:13.094Z,18.48
2017-09-13T11:47:49.028Z,18.53
2017-09-13T11:50:16.815Z,18.56
2017-09-13T11:52:44.611Z,18.61
2017-09-13T11:55:12.687Z,18.70
2017-09-13T11:57:40.494Z,18.72
2017-09-13T12:00:08.225Z,18.82
2017-09-13T12:02:36.024Z,18.81
2017-09-13T12:05:04.136Z,18.88
2017-09-13T12:07:31.949Z,18.92
2017-09-13T12:09:59.760Z,18.67
2017-09-13T12:12:27.547Z,18.78
2017-09-13T12:14:56.326Z,18.80
2017-09-13T12:17:24.191Z,18.81
2017-09-13T12:19:51.965Z,19.06
2017-09-13T12:22:19.742Z,18.94
2017-09-13T12:24:48.517Z,18.91
2017-09-13T12:27:16.824Z,18.86
2017-09-13T12:29:44.681Z,18.95
2017-09-13T12:32:12.430Z,18.96
2017-09-13T12:34:40.699Z,19.05
2017-09-13T12:37:08.853Z,19.30
2017-09-13T12:39:36.777Z,19.19
2017-09-13T12:42:04.615Z,19.44
2017-09-13T12:44:32.536Z,19.35
2017-09-13T12:47:00.264Z,19.39
2017-09-13T12:49:28.656Z,19.49
2017-09-13T12:51:56.488Z,19.59
2017-09-13T12:54:24.332Z,19.61
2017-09-13T12:56:53.184Z,19.56
2017-09-13T12:59:21.498Z,19.44
2017-09-13T13:01:49.305Z,19.44
2017-09-13T13:04:17.599Z,19.49
2017-09-13T13:06:45.397Z,19.53
2017-09-13T13:09:13.435Z,19.77
2017-09-13T13:11:42.204Z,19.64
2017-09-13T13:14:12.099Z,19.81
2017-09-13T13:16:41.083Z,19.74
2017-09-13T13:19:10.103Z,19.68
2017-09-13T13:21:37.883Z,19.57
2017-09-13T13:24:06.198Z,19.71
2017-09-13T13:26:34.572Z,19.74
2017-09-13T13:29:02.390Z,19.71
2017-09-13T13:31:30.116Z,19.95
2017-09-13T13:33:58.203Z,20.21
2017-09-13T13:36:26.707Z,20.17
2017-09-13T13:38:54.481Z,20.31
2017-09-13T13:41:22.727Z,20.18
2017-09-13T13:43:51.659Z,20.34
2017-09-13T13:46:19.465Z,20.20
2017-09-13T13:48:47.218Z,20.23
2017-09-13T13:51:14.973Z,20.09
2017-09-13T13:53:42.865Z,19.69
2017-09-13T13:56:10.681Z,19.57
2017-09-13T13:58:39.331Z,19.71
2017-09-13T14:01:07.764Z,19.77
2017-09-13T14:03:35.973Z,19.73
2017-09-13T14:06:03.752Z,19.55
2017-09-13T14:08:32.706Z,19.39
2017-09-13T14:11:01.275Z,19.24
2017-09-13T14:13:29.116Z,19.11
2017-09-13T14:15:57.090Z,19.01
2017-09-13T14:18:24.909Z,19.06
2017-09-13T14:20:52.988Z,19.10
2017-09-13T14:23:20.862Z,19.08
2017-09-13T14:25:48.678Z,19.06
2017-09-13T14:28:17.028Z,19.20
2017-09-13T14:30:44.846Z,19.25
2017-09-13T14:33:12.593Z,19.22
2017-09-13T14:35:40.599Z,19.20
2017-09-13T14:38:09.113Z,19.08
2017-09-13T14:40:36.951Z,19.14
2017-09-13T14:43:05.583Z,19.12
2017-09-13T14:45:33.887Z,19.15
2017-09-13T14:48:01.784Z,19.00
2017-09-13T14:50:31.206Z,18.85
2017-09-13T14:52:59.130Z,18.66
2017-09-13T14:55:26.973Z,18.56
2017-09-13T14:57:54.693Z,18.56
2017-09-13T15:00:23.232Z,18.43
2017-09-13T15:02:50.968Z,18.37
2017-09-13T15:05:19.149Z,18.44
2017-09-13T15:07:46.926Z,18.44
2017-09-13T15:10:14.646Z,18.40
2017-09-13T15:12:42.446Z,18.20
2017-09-13T15:15:10.326Z,17.99
2017-09-13T15:17:38.346Z,17.81
2017-09-13T15:20:06.275Z,17.78
2017-09-13T15:22:34.327Z,17.72
2017-09-13T15:25:02.417Z,17.72
2017-09-13T15:27:30.263Z,17.73
2017-09-13T15:29:58.757Z,17.82
2017-09-13T15:32:26.556Z,17.71
2017-09-13T15:34:54.422Z,17.58
2017-09-13T15:37:22.472Z,17.57
2017-09-13T15:39:50.222Z,17.59
2017-09-13T15:42:17.964Z,17.67
2017-09-13T15:44:46.943Z,17.69
2017-09-13T15:47:14.834Z,17.71
2017-09-13T15:49:42.620Z,17.58
2017-09-13T15:52:10.477Z,17.53
2017-09-13T15:54:38.235Z,17.57
2017-09-13T15:57:06.103Z,17.50
2017-09-13T15:59:33.912Z,17.47
2017-09-13T16:02:01.718Z,17.43
2017-09-13T16:04:30.335Z,17.37
2017-09-13T16:06:58.112Z,17.36
2017-09-13T16:09:26.742Z,17.38
2017-09-13T16:11:54.529Z,17.38
2017-09-13T16:14:23.169Z,17.40
2017-09-13T16:16:52.882Z,17.37
2017-09-13T16:19:20.603Z,17.39
2017-09-13T16:21:48.687Z,17.41
2017-09-13T16:24:16.417Z,17.33
2017-09-13T16:26:44.545Z,17.28
2017-09-13T16:29:12.367Z,17.18
2017-09-13T16:31:40.123Z,17.11
2017-09-13T16:34:07.830Z,17.06
2017-09-13T16:36:35.623Z,17.04
2017-09-13T16:39:03.478Z,17.00
2017-09-13T16:41:31.298Z,16.98
2017-09-13T16:43:59.134Z,17.00
2017-09-13T16:46:26.877Z,16.91
2017-09-13T16:48:54.720Z,16.71
2017-09-13T16:51:22.430Z,16.71
2017-09-13T16:53:50.124Z,16.61
2017-09-13T16:56:17.972Z,16.56
2017-09-13T16:58:45.846Z,16.56
2017-09-13T17:01:13.622Z,16.56
2017-09-13T17:03:41.422Z,16.50
2017-09-13T17:06:09.386Z,16.50
2017-09-13T17:08:37.762Z,16.33
2017-09-13T17:11:05.603Z,16.22
2017-09-13T17:13:33.409Z,16.14
2017-09-13T17:16:02.419Z,16.07
2017-09-13T17:18:30.234Z,16.02
2017-09-13T17:20:58.027Z,15.92
2017-09-13T17:23:25.758Z,15.96
2017-09-13T17:25:53.533Z,15.90
2017-09-13T17:28:21.504Z,15.79
2017-09-13T17:30:50.502Z,15.70
2017-09-13T17:33:18.334Z,15.73
2017-09-13T17:35:46.214Z,15.75
2017-09-13T17:38:14.017Z,15.69
2017-09-13T17:40:41.758Z,15.62
2017-09-13T17:43:09.626Z,15.44
2017-09-13T17:45:37.712Z,15.44
2017-09-13T17:48:06.258Z,15.44
2017-09-13T17:50:34.281Z,15.37
2017-09-13T17:53:02.639Z,15.32
2017-09-13T17:55:30.435Z,15.28
2017-09-13T17:57:58.327Z,15.31
2017-09-13T18:00:26.168Z,15.22
2017-09-13T18:02:54.118Z,15.14
2017-09-13T18:05:22.173Z,15.09
2017-09-13T18:07:50.481Z,15.10
2017-09-13T18:10:18.281Z,15.06
2017-09-13T18:12:46.087Z,15.03
2017-09-13T18:15:13.940Z,14.91
2017-09-13T18:17:41.793Z,14.72
2017-09-13T18:20:09.639Z,14.66
2017-09-13T18:22:37.471Z,14.67
2017-09-13T18:25:05.252Z,14.72
2017-09-13T18:27:33.042Z,14.72
2017-09-13T18:30:01.068Z,14.73
2017-09-13T18:32:28.829Z,14.69
2017-09-13T18:34:56.626Z,14.71
2017-09-13T18:37:24.449Z,14.67
2017-09-13T18:39:52.193Z,14.56
2017-09-13T18:42:20.479Z,14.61
2017-09-13T18:44:48.311Z,14.66
2017-09-13T18:47:16.956Z,14.46
2017-09-13T18:49:44.782Z,14.16
2017-09-13T18:52:13.043Z,14.08
2017-09-13T18:54:40.860Z,14.07
2017-09-13T18:57:08.874Z,13.96
2017-09-13T18:59:36.745Z,14.00
2017-09-13T19:02:06.627Z,14.06
2017-09-13T19:04:36.067Z,14.02
2017-09-13T19:07:03.890Z,13.96
2017-09-13T19:09:32.683Z,14.05
2017-09-13T19:12:00.533Z,13.93
2017-09-13T19:14:28.296Z,13.93
2017-09-13T19:16:56.150Z,13.88
2017-09-13T19:19:23.977Z,13.87
2017-09-13T19:21:51.691Z,13.86
2017-09-13T19:24:19.672Z,13.74
2017-09-13T19:26:47.431Z,13.65
2017-09-13T19:29:15.174Z,13.72
2017-09-13T19:31:43.327Z,13.71
2017-09-13T19:34:11.123Z,13.64
2017-09-13T19:36:38.964Z,13.68
2017-09-13T19:39:10.317Z,13.61
2017-09-13T19:41:39.271Z,13.60
2017-09-13T19:44:07.065Z,13.54
2017-09-13T19:46:36.022Z,13.51
2017-09-13T19:49:04.876Z,13.51
2017-09-13T19:51:32.896Z,13.50
2017-09-13T19:54:00.680Z,13.48
2017-09-13T19:56:28.405Z,13.36
2017-09-13T19:58:56.189Z,13.30
2017-09-13T20:01:24.734Z,13.30
2017-09-13T20:03:52.441Z,13.27
2017-09-13T20:06:20.580Z,13.23
2017-09-13T20:08:49.493Z,13.21
2017-09-13T20:11:18.577Z,13.14
2017-09-13T20:13:47.126Z,13.11
2017-09-13T20:16:14.917Z,13.12
2017-09-13T20:18:43.384Z,12.96
2017-09-13T20:21:11.155Z,13.02
2017-09-13T20:23:38.858Z,13.01
2017-09-13T20:26:06.600Z,12.72
2017-09-13T20:28:34.334Z,12.79
2017-09-13T20:31:02.043Z,12.70
2017-09-13T20:33:29.796Z,12.69
2017-09-13T20:35:58.064Z,12.70
2017-09-13T20:38:27.021Z,12.57
2017-09-13T20:40:55.752Z,12.56
2017-09-13T20:43:23.544Z,12.56
2017-09-13T20:45:52.188Z,12.58
2017-09-13T20:48:20.360Z,12.48
2017-09-13T20:50:49.239Z,12.52
2017-09-13T20:53:17.059Z,12.40
2017-09-13T20:55:44.944Z,12.34
2017-09-13T20:58:14.247Z,12.31
2017-09-13T21:00:42.022Z,12.39
2017-09-13T21:03:09.785Z,12.18
2017-09-13T21:05:38.148Z,12.10
2017-09-13T21:08:09.858Z,12.06
2017-09-13T21:10:39.302Z,12.20
2017-09-13T21:13:07.744Z,12.20
2017-09-13T21:15:36.865Z,12.02
2017-09-13T21:18:05.719Z,12.11
2017-09-13T21:20:33.485Z,12.04
2017-09-13T21:23:01.393Z,12.03
2017-09-13T21:25:29.170Z,11.91
2017-09-13T21:27:57.575Z,11.85
2017-09-13T21:30:25.375Z,11.89
2017-09-13T21:32:53.079Z,12.01
2017-09-13T21:35:21.740Z,11.86
2017-09-13T21:37:50.140Z,11.70
2017-09-13T21:40:17.850Z,11.51
2017-09-13T21:42:45.638Z,11.55
2017-09-13T21:45:13.423Z,11.55
2017-09-13T21:47:41.763Z,11.52
2017-09-13T21:50:09.485Z,11.45
2017-09-13T21:52:37.321Z,11.38
2017-09-13T21:55:05.043Z,11.34
2017-09-13T21:57:32.882Z,11.33
2017-09-13T22:00:02.239Z,11.39
2017-09-13T22:02:30.019Z,11.26
2017-09-13T22:04:57.894Z,11.17
2017-09-13T22:07:26.067Z,11.31
2017-09-13T22:09:53.835Z,11.31
2017-09-13T22:12:22.632Z,11.32
2017-09-13T22:14:50.703Z,11.14
2017-09-13T22:17:19.145Z,11.17
2017-09-13T22:19:46.921Z,11.20
2017-09-13T22:22:14.891Z,11.23
2017-09-13T22:24:42.997Z,11.31
2017-09-13T22:27:11.941Z,11.24
2017-09-13T22:29:40.431Z,11.18
2017-09-13T22:32:08.351Z,11.26
2017-09-13T22:34:36.575Z,11.11
2017-09-13T22:37:04.304Z,11.03
2017-09-13T22:39:32.072Z,11.04
2017-09-13T22:41:59.781Z,11.06
2017-09-13T22:44:28.645Z,11.07
2017-09-13T22:46:56.384Z,11.01
2017-09-13T22:49:25.776Z,10.87
2017-09-13T22:51:56.511Z,10.89
2017-09-13T22:54:24.367Z,10.80
2017-09-13T22:56:53.438Z,10.82
2017-09-13T22:59:21.507Z,10.64
2017-09-13T23:01:50.841Z,10.60
2017-09-13T23:04:18.520Z,10.60
2017-09-13T23:06:46.264Z,10.64
2017-09-13T23:09:13.981Z,10.78
2017-09-13T23:11:41.860Z,10.70
2017-09-13T23:14:11.248Z,10.72
2017-09-13T23:16:39.087Z,10.63
2017-09-13T23:19:08.099Z,10.51
2017-09-13T23:21:36.632Z,10.59
2017-09-13T23:24:05.590Z,10.52
2017-09-13T23:26:35.121Z,10.46
2017-09-13T23:29:03.057Z,10.47
2017-09-13T23:31:32.865Z,10.50
2017-09-13T23:34:00.597Z,10.56
2017-09-13T23:36:28.377Z,10.37
2017-09-13T23:38:57.200Z,10.45
2017-09-13T23:41:25.035Z,10.38
2017-09-13T23:43:53.421Z,10.32
2017-09-13T23:46:21.239Z,10.36
2017-09-13T23:48:48.973Z,10.27
2017-09-13T23:51:16.716Z,10.20
2017-09-13T23:53:46.154Z,10.28
2017-09-13T23:56:14.922Z,10.11
2017-09-13T23:58:42.633Z,10.15
